Time;durP1;ratioP1;P1;durP2;ratioP2;P2;SDS_P1;SDS_P2;PMS_P1;PMS_P2;Temp;Humidity;BMP_temperature;BMP_pressure;BME280_temperature;BME280_humidity;BME280_pressure;Samples;Min_cycle;Max_cycle;Signal;HPM_P1;HPM_P2
2021/12/05 00:22:00;;;;;;;70.32;27.45;;;;;;;-0.85;82.76;99291.44;1695853;82;25858;-67
2021/12/05 00:24:32;;;;;;;69.62;27.35;;;;;;;-0.82;82.74;99292.25;1700756;82;98761;-66
2021/12/05 00:27:05;;;;;;;78.22;28.32;;;;;;;-0.79;82.75;99292.64;1690465;83;26182;-66
2021/12/05 00:29:39;;;;;;;82.80;32.50;;;;;;;-0.77;82.74;99291.72;1677561;83;27349;-66
2021/12/05 00:32:50;;;;;;;85.95;31.23;;;;;;;-0.75;82.75;99289.92;1676885;83;98660;-66
2021/12/05 00:34:59;;;;;;;88.22;31.62;;;;;;;-0.73;82.73;99290.76;1654674;83;26334;-66
2021/12/05 00:54:01;;;;;;;76.95;29.63;;;;;;;-0.57;82.80;99297.91;1688586;83;25345;-68
2021/12/05 00:59:09;;;;;;;87.25;31.85;;;;;;;-0.51;82.82;99302.17;1689991;83;25771;-66
2021/12/05 01:04:13;;;;;;;76.62;28.65;;;;;;;-0.48;82.82;99298.16;1695032;83;26972;-68
2021/12/05 01:09:13;;;;;;;79.05;29.12;;;;;;;-0.43;82.80;99301.57;1643855;82;27488;-67
2021/12/05 01:16:46;;;;;;;72.75;28.50;;;;;;;-0.47;82.76;99305.16;1696752;82;25818;-66
2021/12/05 01:19:17;;;;;;;65.95;26.97;;;;;;;-0.47;82.81;99302.08;1680767;82;98872;-66
2021/12/05 01:21:47;;;;;;;;;;;;;;;-0.45;82.82;99300.28;1676836;83;27818;-68
2021/12/05 01:24:44;;;;;;;74.40;27.15;;;;;;;-0.44;82.80;99300.70;1663970;84;84131;-68
2021/12/05 01:27:26;;;;;;;68.15;26.80;;;;;;;-0.46;82.83;99301.19;1681202;83;25909;-66
2021/12/05 01:29:52;;;;;;;74.05;28.60;;;;;;;-0.47;82.75;99298.58;1636493;85;26565;-68
2021/12/05 01:35:06;;;;;;;67.80;26.17;;;;;;;-0.45;82.82;99304.23;1600283;87;27498;-66
2021/12/05 01:37:32;;;;;;;64.12;26.20;;;;;;;-0.49;82.71;99295.98;1680824;83;99221;-67
2021/12/05 01:40:18;;;;;;;76.30;26.37;;;;;;;-0.50;82.73;99296.02;1670078;83;25920;-67
2021/12/05 01:55:54;;;;;;;65.75;25.65;;;;;;;-0.47;82.77;99265.23;1685999;83;98851;-66
2021/12/05 02:41:22;;;;;;;63.87;24.95;;;;;;;-0.42;82.73;99264.69;1675492;84;28953;-66
2021/12/05 02:44:13;;;;;;;;;;;;;;;;;;;;;
2021/12/05 02:46:26;;;;;;;53.98;24.10;;;;;;;-0.35;82.74;99262.80;1685714;83;26218;-65
2021/12/05 02:49:03;;;;;;;55.63;22.10;;;;;;;-0.35;82.71;99263.66;1674878;83;98812;-66
2021/12/05 02:51:27;;;;;;;52.93;22.40;;;;;;;-0.32;82.75;99264.49;1666833;84;25841;-66
2021/12/05 02:54:07;;;;;;;60.37;24.43;;;;;;;-0.36;82.57;99257.98;1668536;84;28175;-66
2021/12/05 02:56:36;;;;;;;64.47;23.47;;;;;;;-0.36;82.57;99257.98;1668832;83;99009;-66
2021/12/05 02:59:17;;;;;;;59.87;24.47;;;;;;;-0.39;82.60;99260.67;1671399;84;26458;-66
2021/12/05 03:01:40;;;;;;;63.68;25.10;;;;;;;-0.39;82.63;99267.26;1662458;84;98887;-66
2021/12/05 03:03:59;;;;;;;73.28;28.83;;;;;;;-0.37;82.69;99268.09;1668640;84;25735;-65
2021/12/05 03:06:31;;;;;;;61.00;26.42;;;;;;;-0.32;82.71;99271.94;1669645;83;98919;-66
2021/12/05 03:09:02;;;;;;;68.20;25.60;;;;;;;-0.29;82.71;99272.33;1669154;84;25983;-66
2021/12/05 03:11:30;;;;;;;57.43;23.85;;;;;;;-0.27;82.70;99281.06;1667730;84;25870;-66
2021/12/05 03:13:57;;;;;;;59.03;24.55;;;;;;;-0.25;82.69;99284.08;1668304;84;98711;-66
2021/12/05 03:16:27;;;;;;;63.78;24.02;;;;;;;-0.26;82.63;99276.20;1669924;84;26532;-66
2021/12/05 03:18:53;;;;;;;61.75;26.23;;;;;;;-0.25;82.62;99281.44;1668673;84;98816;-66
2021/12/05 03:21:21;;;;;;;61.25;25.80;;;;;;;-0.22;82.68;99287.09;1669437;84;27225;-66
2021/12/05 03:23:49;;;;;;;65.20;26.57;;;;;;;-0.21;82.60;99289.70;1670501;84;25934;-66
2021/12/05 03:26:21;;;;;;;53.02;23.07;;;;;;;-0.19;82.64;99293.16;1667738;84;99289;-66
2021/12/05 03:28:49;;;;;;;61.92;25.25;;;;;;;-0.19;82.62;99285.71;1669239;84;25768;-68
2021/12/05 03:31:17;;;;;;;58.05;25.02;;;;;;;-0.20;82.58;99291.87;1668752;84;98769;-66
2021/12/05 03:33:43;;;;;;;61.80;25.25;;;;;;;-0.23;82.51;99287.99;1671008;84;25751;-66
2021/12/05 03:36:10;;;;;;;68.72;25.00;;;;;;;-0.24;82.54;99292.39;1667947;84;99037;-66
2021/12/05 03:38:39;;;;;;;52.85;22.98;;;;;;;-0.20;82.59;99290.56;1670105;84;27810;-66
2021/12/05 03:41:06;;;;;;;61.40;25.82;;;;;;;-0.19;82.58;99286.58;1668847;84;25805;-66
2021/12/05 03:43:33;;;;;;;66.05;25.62;;;;;;;-0.19;82.54;99287.89;1674675;84;98787;-66
2021/12/05 03:46:02;;;;;;;57.75;23.77;;;;;;;-0.17;82.58;99293.99;1664710;85;25800;-66
2021/12/05 03:48:33;;;;;;;62.08;25.37;;;;;;;-0.19;82.51;99283.95;1664826;84;98971;-66
2021/12/05 03:51:01;;;;;;;69.75;25.27;;;;;;;-0.18;82.52;99296.20;1662306;85;26608;-66
2021/12/05 03:53:27;;;;;;;61.20;24.40;;;;;;;-0.14;82.55;99294.38;1665526;84;25902;-66
2021/12/05 03:55:56;;;;;;;56.25;24.07;;;;;;;-0.14;82.50;99291.30;1660077;84;98924;-66
2021/12/05 03:58:23;;;;;;;61.53;24.63;;;;;;;-0.13;82.47;99293.03;1666564;84;26622;-68
2021/12/05 04:00:54;;;;;;;59.48;25.08;;;;;;;-0.14;82.48;99293.92;1664531;84;98867;-68
2021/12/05 04:03:22;;;;;;;55.65;23.35;;;;;;;-0.12;82.50;99293.44;1667986;84;25873;-67
2021/12/05 04:05:49;;;;;;;63.83;24.47;;;;;;;-0.12;82.47;99292.13;1667558;85;25728;-67
2021/12/05 04:08:19;;;;;;;63.73;24.72;;;;;;;-0.12;82.45;99293.89;1663722;85;97893;-68
2021/12/05 04:10:51;;;;;;;66.20;26.52;;;;;;;-0.12;82.43;99296.08;1666021;84;25866;-67
2021/12/05 04:13:18;;;;;;;64.37;25.90;;;;;;;-0.09;82.46;99299.09;1676794;83;98764;-67
2021/12/05 04:15:47;;;;;;;65.22;24.63;;;;;;;-0.08;82.44;99304.78;1651602;85;26183;-66
2021/12/05 04:18:13;;;;;;;63.20;25.32;;;;;;;-0.06;82.45;99304.30;1678162;83;98988;-68
2021/12/05 04:20:39;;;;;;;66.22;23.95;;;;;;;-0.06;82.40;99310.43;1681422;83;27358;-67
2021/12/05 04:23:06;;;;;;;55.88;24.23;;;;;;;-0.05;82.38;99312.61;1678142;84;26424;-67
2021/12/05 04:25:37;;;;;;;66.87;24.00;;;;;;;-0.07;82.35;99311.78;1676286;83;98766;-67
2021/12/05 04:28:06;;;;;;;64.10;27.87;;;;;;;-0.11;82.29;99310.11;1676775;83;25757;-67
2021/12/05 04:30:33;;;;;;;61.83;24.32;;;;;;;-0.12;82.34;99317.14;1678120;83;99415;-66
2021/12/05 04:32:59;;;;;;;60.65;25.20;;;;;;;-0.11;82.37;99314.06;1665464;84;29511;-66
2021/12/05 04:35:26;;;;;;;64.75;25.60;;;;;;;-0.12;82.33;99319.78;1667142;84;25840;-66
2021/12/05 04:37:52;;;;;;;58.90;23.62;;;;;;;-0.14;82.32;99324.21;1666321;84;98890;-66
2021/12/05 04:40:18;;;;;;;60.78;25.75;;;;;;;-0.17;82.28;99324.72;1661218;84;25804;-66
2021/12/05 04:42:44;;;;;;;57.75;25.27;;;;;;;-0.17;82.34;99328.67;1694611;83;99012;-66
2021/12/05 04:45:18;;;;;;;58.33;23.35;;;;;;;-0.20;82.28;99323.47;1695751;82;29584;-66
2021/12/05 04:47:45;;;;;;;57.20;25.12;;;;;;;-0.25;82.25;99327.52;1686480;83;27109;-66
2021/12/05 04:50:13;;;;;;;59.20;25.55;;;;;;;-0.26;82.32;99331.50;1701531;81;98688;-66
2021/12/05 04:52:39;;;;;;;63.80;25.02;;;;;;;-0.24;82.38;99333.66;1702155;82;26549;-65
2021/12/05 04:55:07;;;;;;;59.95;24.45;;;;;;;-0.23;82.40;99338.02;1672080;83;98764;-65
2021/12/05 04:57:33;;;;;;;62.73;25.92;;;;;;;-0.24;82.38;99335.84;1670547;84;28563;-66
2021/12/05 04:59:59;;;;;;;62.23;25.02;;;;;;;-0.24;82.37;99335.84;1672786;84;27126;-66
2021/12/05 05:02:25;;;;;;;56.90;24.30;;;;;;;-0.26;82.35;99336.77;1671166;83;98941;-66
2021/12/05 05:04:53;;;;;;;52.08;23.67;;;;;;;-0.25;82.39;99335.42;1669875;84;26027;-66
2021/12/05 05:07:27;;;;;;;52.25;23.70;;;;;;;-0.29;82.29;99340.78;1664841;84;98810;-66
2021/12/05 05:09:58;;;;;;;58.68;23.50;;;;;;;-0.33;82.29;99341.29;1673073;84;28519;-66
2021/12/05 05:12:24;;;;;;;;;;;;;;;-0.34;82.36;99344.82;1666907;84;98948;-65
2021/12/05 05:14:52;;;;;;;62.75;24.45;;;;;;;-0.37;82.28;99351.46;1671870;84;30433;-66
2021/12/05 05:17:19;;;;;;;62.80;25.40;;;;;;;-0.40;82.40;99349.76;1671982;84;25769;-66
2021/12/05 05:19:50;;;;;;;64.22;25.17;;;;;;;-0.41;82.41;99348.47;1670054;84;98673;-65
2021/12/05 05:22:27;;;;;;;61.48;25.75;;;;;;;-0.41;82.42;99357.23;1673231;84;27489;-66
2021/12/05 05:25:17;;;;;;;64.85;25.92;;;;;;;-0.40;82.47;99358.97;1666574;84;99064;-66
2021/12/05 05:30:23;;;;;;;60.20;25.08;;;;;;;-0.42;82.45;99362.08;1671291;84;25793;-65
2021/12/05 05:46:17;;;;;;;66.53;26.37;;;;;;;-0.40;82.61;99362.92;1676921;83;26354;-67
2021/12/05 05:48:48;;;;;;;59.80;26.07;;;;;;;-0.41;82.56;99365.13;1679644;84;98867;-66
2021/12/05 05:51:11;;;;;;;69.60;25.82;;;;;;;-0.43;82.57;99360.80;1673802;83;27160;-66
2021/12/05 05:53:38;;;;;;;64.22;25.80;;;;;;;-0.43;82.58;99369.56;1675774;84;25790;-66
2021/12/05 05:56:10;;;;;;;61.48;24.07;;;;;;;-0.42;82.65;99372.61;1690230;83;98831;-67
2021/12/05 05:58:42;;;;;;;63.95;24.67;;;;;;;-0.41;82.58;99366.90;1699300;82;25798;-67
2021/12/05 06:01:16;;;;;;;66.67;26.15;;;;;;;-0.47;82.50;99361.30;1669106;84;99014;-65
2021/12/05 06:03:35;;;;;;;67.40;26.50;;;;;;;-0.49;82.57;99365.73;1676440;84;25824;-65
2021/12/05 06:06:10;;;;;;;62.67;27.15;;;;;;;-0.48;82.71;99371.86;1698426;82;30357;-66
2021/12/05 06:08:38;;;;;;;67.27;27.30;;;;;;;-0.46;82.76;99371.38;1702814;82;98500;-67
2021/12/05 06:11:12;;;;;;;62.43;25.23;;;;;;;-0.43;82.79;99377.45;1698939;82;25858;-68
2021/12/05 06:13:38;;;;;;;58.73;25.57;;;;;;;-0.43;82.73;99387.12;1699473;82;98696;-66
2021/12/05 06:16:07;;;;;;;64.55;27.02;;;;;;;-0.44;82.70;99384.94;1702081;82;26001;-66
2021/12/05 06:18:33;;;;;;;60.55;24.67;;;;;;;-0.44;82.69;99385.38;1698677;82;98818;-66
2021/12/05 06:21:00;;;;;;;68.25;26.25;;;;;;;-0.48;82.67;99386.34;1670853;84;26581;-67
2021/12/05 06:23:27;;;;;;;54.98;25.05;;;;;;;-0.47;82.79;99386.76;1699542;82;25778;-68
2021/12/05 06:25:54;;;;;;;65.97;27.27;;;;;;;-0.46;82.80;99389.81;1699242;82;98738;-68
2021/12/05 06:28:35;;;;;;;62.83;24.75;;;;;;;-0.46;82.84;99388.05;1700921;82;25907;-66
2021/12/05 06:39:30;;;;;;;58.17;25.35;;;;;;;-0.46;82.88;99399.89;1695579;82;29618;-67
2021/12/05 06:47:12;;;;;;;52.78;24.25;;;;;;;-0.44;82.90;99407.31;1675128;84;26188;-67
2021/12/05 06:49:40;;;;;;;62.75;25.27;;;;;;;-0.46;82.88;99418.77;1666162;84;98835;-66
2021/12/05 06:52:07;;;;;;;64.45;27.10;;;;;;;-0.53;82.79;99418.01;1701444;82;27324;-65
2021/12/05 06:54:36;;;;;;;64.80;24.95;;;;;;;-0.52;82.95;99418.88;1697922;82;99276;-67
2021/12/05 06:57:04;;;;;;;60.15;24.98;;;;;;;-0.47;83.05;99426.23;1691392;82;25827;-65
2021/12/05 06:59:30;;;;;;;65.37;26.57;;;;;;;-0.49;83.03;99431.98;1704762;82;26381;-67
2021/12/05 07:01:56;;;;;;;62.05;25.50;;;;;;;-0.46;83.09;99431.47;1704908;82;98780;-67
2021/12/05 07:07:10;;;;;;;57.38;24.77;;;;;;;-0.40;83.15;99431.36;1698265;82;98639;-67
2021/12/05 07:09:34;;;;;;;64.37;26.65;;;;;;;-0.35;83.21;99441.80;1702412;82;26514;-67
2021/12/05 07:22:30;;;;;;;49.05;22.15;;;;;;;-0.30;83.16;99450.94;1666416;82;25983;-66
2021/12/05 07:25:03;;;;;;;56.50;25.00;;;;;;;-0.32;83.17;99448.78;1695429;82;98987;-65
2021/12/05 07:41:53;;;;;;;61.53;28.65;;;;;;;-0.28;83.31;99455.73;1694306;82;25679;-65
2021/12/05 07:43:38;;;;;;;;;;;;;;;-0.25;83.45;99456.53;1681637;82;98750;-65
2021/12/05 07:46:05;;;;;;;60.60;25.20;;;;;;;-0.20;83.50;99463.91;1693702;82;34159;-67
2021/12/05 07:48:35;;;;;;;58.40;23.07;;;;;;;-0.19;83.47;99466.95;1689777;82;98820;-65
2021/12/05 07:51:14;;;;;;;61.05;26.25;;;;;;;-0.15;83.46;99466.45;1697596;82;26367;-66
2021/12/05 07:56:15;;;;;;;58.90;25.90;;;;;;;-0.14;83.42;99470.37;1702322;82;98774;-65
2021/12/05 08:15:13;;;;;;;65.47;26.05;;;;;;;0.00;83.65;99471.42;1695943;82;98633;-66
2021/12/05 08:17:36;;;;;;;58.33;24.05;;;;;;;0.02;83.64;99472.67;1695618;82;25899;-67
2021/12/05 08:20:05;;;;;;;60.30;26.07;;;;;;;0.05;83.66;99476.13;1694968;82;98687;-67
2021/12/05 08:22:31;;;;;;;63.73;28.15;;;;;;;0.04;83.57;99471.75;1699515;82;28223;-68
2021/12/05 08:25:07;;;;;;;68.45;28.62;;;;;;;0.02;83.60;99477.50;1699420;82;98806;-71
2021/12/05 08:27:25;;;;;;;51.37;24.63;;;;;;;0.04;83.69;99478.34;1697235;82;26223;-67
2021/12/05 08:29:55;;;;;;;64.17;28.35;;;;;;;0.08;83.75;99476.51;1696431;82;26394;-66
2021/12/05 08:32:34;;;;;;;61.68;27.10;;;;;;;0.11;83.80;99481.27;1673617;82;98505;-66
2021/12/05 08:35:23;;;;;;;63.45;29.10;;;;;;;0.12;83.75;99482.14;1661813;84;27467;-67
2021/12/05 09:21:31;;;;;;;65.47;31.20;;;;;;;0.41;84.13;99514.05;1676747;84;98430;-73
2021/12/05 09:29:06;;;;;;;71.50;32.10;;;;;;;0.61;84.10;99525.50;1666674;84;27772;-70
2021/12/05 09:53:34;;;;;;;63.15;30.23;;;;;;;0.90;84.15;99544.66;1668792;84;25728;-69
2021/12/05 10:01:58;;;;;;;58.35;28.52;;;;;;;0.94;84.10;99546.33;1662142;84;98890;-71
2021/12/05 10:06:54;;;;;;;63.10;31.87;;;;;;;1.03;84.32;99549.22;1710577;82;25732;-69
2021/12/05 10:09:57;;;;;;;53.65;29.12;;;;;;;1.10;84.40;99545.08;1686896;82;98415;-69
2021/12/05 10:15:56;;;;;;;63.33;29.92;;;;;;;1.09;84.23;99551.27;1710229;82;98615;-72
2021/12/05 10:37:59;;;;;;;66.40;30.80;;;;;;;1.36;84.44;99546.25;1709580;82;98558;-69
2021/12/05 10:40:33;;;;;;;69.80;33.40;;;;;;;1.36;84.25;99546.25;1709204;82;25936;-69
2021/12/05 10:42:54;;;;;;;67.32;32.70;;;;;;;1.37;84.36;99543.58;1705583;82;98852;-66
2021/12/05 10:45:32;;;;;;;68.55;33.02;;;;;;;1.42;84.39;99544.34;1708485;82;26255;-70
2021/12/05 10:48:05;;;;;;;65.05;30.05;;;;;;;1.48;84.50;99532.77;1715409;82;25805;-69
2021/12/05 10:50:45;;;;;;;69.15;30.65;;;;;;;1.58;84.65;99541.73;1712429;82;98666;-72
2021/12/05 10:53:43;;;;;;;75.20;34.63;;;;;;;1.72;84.65;99541.40;1713615;82;26662;-68
2021/12/05 10:56:33;;;;;;;67.45;33.23;;;;;;;1.79;84.48;99546.94;1710788;81;98605;-69
2021/12/05 10:59:16;;;;;;;74.32;33.20;;;;;;;1.82;84.40;99548.64;1709290;82;25811;-64
2021/12/05 11:01:47;;;;;;;68.42;32.23;;;;;;;1.80;84.49;99543.39;1708190;82;98643;-64
2021/12/05 11:04:30;;;;;;;67.82;32.30;;;;;;;1.80;84.42;99550.00;1705786;82;27430;-64
2021/12/05 11:07:01;;;;;;;71.17;32.93;;;;;;;1.77;84.41;99558.00;1709069;82;98640;-64
2021/12/05 11:09:43;;;;;;;67.80;31.40;;;;;;;1.76;84.44;99560.23;1710108;82;25931;-62
2021/12/05 11:12:19;;;;;;;80.72;36.90;;;;;;;1.77;84.46;99560.64;1712411;82;27053;-64
2021/12/05 11:14:53;;;;;;;73.57;32.45;;;;;;;1.79;84.46;99563.25;1648161;85;98684;-62
2021/12/05 11:17:23;;;;;;;70.70;34.03;;;;;;;1.72;84.25;99562.98;1679817;83;27442;-64
2021/12/05 11:20:09;;;;;;;70.77;34.07;;;;;;;1.66;84.35;99568.42;1648868;85;98677;-62
2021/12/05 11:22:40;;;;;;;72.95;33.63;;;;;;;1.59;84.20;99572.53;1649068;85;25907;-63
2021/12/05 11:25:16;;;;;;;66.72;31.97;;;;;;;1.55;84.29;99578.78;1658127;84;98930;-61
2021/12/05 11:27:52;;;;;;;79.20;37.08;;;;;;;1.51;84.32;99576.25;1667798;84;25839;-64
2021/12/05 11:30:23;;;;;;;75.92;35.73;;;;;;;1.50;84.32;99581.13;1663407;84;29305;-65
2021/12/05 11:33:03;;;;;;;85.10;36.90;;;;;;;1.46;84.31;99582.09;1659706;84;99193;-64
2021/12/05 11:35:51;;;;;;;82.95;36.68;;;;;;;1.44;84.29;99586.55;1666830;84;25743;-63
2021/12/05 11:38:24;;;;;;;73.80;34.48;;;;;;;1.45;84.41;99587.83;1666787;84;99072;-66
2021/12/05 11:41:14;;;;;;;74.10;32.45;;;;;;;1.44;84.32;99591.83;1672900;84;26108;-66
2021/12/05 11:43:56;;;;;;;79.35;35.83;;;;;;;1.43;84.39;99595.38;1666512;84;99217;-68
2021/12/05 11:46:42;;;;;;;70.17;33.38;;;;;;;1.42;84.38;99601.55;1664157;84;25936;-65
2021/12/05 11:49:10;;;;;;;67.67;33.23;;;;;;;1.41;84.29;99599.37;1663352;84;98846;-63
2021/12/05 11:51:53;;;;;;;74.95;32.08;;;;;;;1.37;84.31;99594.19;1658863;84;26508;-63
2021/12/05 11:54:46;;;;;;;77.37;34.38;;;;;;;1.37;84.32;99593.73;1554698;90;25819;-63
2021/12/05 11:57:27;;;;;;;72.25;35.08;;;;;;;1.38;84.32;99592.84;1545598;90;99100;-63
2021/12/05 12:00:01;;;;;;;74.82;34.90;;;;;;;1.42;84.46;99591.86;1576699;89;26181;-63
2021/12/05 12:02:33;;;;;;;76.35;37.05;;;;;;;1.50;84.48;99602.25;1571317;89;98568;-63
2021/12/05 12:05:07;;;;;;;81.32;36.75;;;;;;;1.54;84.50;99595.98;1576096;89;26326;-63
2021/12/05 12:07:45;;;;;;;83.40;36.75;;;;;;;1.56;84.37;99591.09;1553258;90;98831;-63
2021/12/05 12:10:22;;;;;;;86.45;40.08;;;;;;;1.54;84.29;99595.98;1568886;89;27476;-63
2021/12/05 12:12:59;;;;;;;84.55;40.85;;;;;;;1.52;84.39;99589.87;1573157;89;26824;-63
2021/12/05 12:15:29;;;;;;;87.80;41.88;;;;;;;1.54;84.37;99588.06;1569941;89;98345;-64
2021/12/05 12:18:05;;;;;;;97.67;41.48;;;;;;;1.56;84.43;99597.69;1574556;89;25530;-64
2021/12/05 12:20:29;;;;;;;90.97;41.05;;;;;;;1.56;84.40;99600.78;1576155;89;99039;-63
2021/12/05 12:22:57;;;;;;;82.20;38.95;;;;;;;1.53;84.29;99594.25;1571790;89;27569;-64
2021/12/05 12:25:28;;;;;;;87.95;40.03;;;;;;;1.50;84.29;99597.83;1560482;89;98727;-65
2021/12/05 12:27:54;;;;;;;82.60;36.58;;;;;;;1.46;84.29;99600.13;1557663;89;25422;-62
2021/12/05 12:30:27;;;;;;;81.35;37.33;;;;;;;1.41;84.16;99602.45;1559524;90;26323;-63
2021/12/05 12:33:05;;;;;;;92.42;37.73;;;;;;;1.28;84.10;99606.69;1555209;89;98760;-63
2021/12/05 12:35:35;;;;;;;78.22;36.00;;;;;;;1.29;84.30;99605.80;1535889;91;27494;-63
2021/12/05 12:38:16;;;;;;;78.42;36.20;;;;;;;1.30;84.37;99600.93;1558232;90;98674;-64
2021/12/05 12:40:56;;;;;;;77.72;36.88;;;;;;;1.31;84.37;99600.48;1566458;91;25997;-63
2021/12/05 12:43:44;;;;;;;78.25;37.00;;;;;;;1.30;84.33;99602.25;1560084;91;98839;-63
2021/12/05 12:46:36;;;;;;;93.42;41.73;;;;;;;1.31;84.33;99604.44;1519792;92;25751;-63
2021/12/05 12:49:20;;;;;;;83.42;37.98;;;;;;;1.33;84.40;99603.09;1525460;92;27501;-64
2021/12/05 12:51:58;;;;;;;82.57;38.42;;;;;;;1.30;84.28;99603.56;1521202;92;25829;-61
2021/12/05 12:54:48;;;;;;;83.03;37.53;;;;;;;1.26;84.22;99607.63;1539354;91;25860;-64
2021/12/05 12:57:23;;;;;;;88.60;39.50;;;;;;;1.23;84.25;99603.74;1577112;87;98727;-63
2021/12/05 13:00:13;;;;;;;89.77;40.55;;;;;;;1.22;84.29;99604.19;1580212;88;26705;-62
2021/12/05 13:07:15;;;;;;;84.35;37.90;;;;;;;1.24;84.33;99606.80;1575418;89;25980;-65
2021/12/05 13:11:13;;;;;;;78.07;35.98;;;;;;;1.25;84.38;99614.69;1580633;90;26578;-63
2021/12/05 13:13:42;;;;;;;69.67;32.93;;;;;;;1.20;84.19;99621.83;1576249;88;98759;-62
2021/12/05 13:16:20;;;;;;;79.62;35.63;;;;;;;1.16;84.21;99633.36;1580174;89;27495;-62
2021/12/05 13:18:52;;;;;;;76.90;34.58;;;;;;;1.11;84.21;99634.36;1582094;90;26505;-62
2021/12/05 13:21:36;;;;;;;81.55;37.80;;;;;;;1.09;84.25;99638.80;1564225;90;98601;-61
2021/12/05 13:24:30;;;;;;;90.20;40.17;;;;;;;1.10;84.35;99647.13;1583904;88;26669;-63
2021/12/05 13:27:06;;;;;;;78.87;35.98;;;;;;;1.09;84.36;99642.75;1555230;90;98621;-62
2021/12/05 13:29:49;;;;;;;75.65;36.68;;;;;;;1.07;84.32;99651.16;1552530;90;27499;-65
2021/12/05 13:32:26;;;;;;;86.25;38.80;;;;;;;1.07;84.31;99652.48;1583710;89;98720;-63
2021/12/05 13:35:07;;;;;;;82.15;36.03;;;;;;;1.07;84.34;99657.75;1585849;88;26209;-63
2021/12/05 13:37:48;;;;;;;80.53;38.08;;;;;;;1.05;84.26;99656.46;1585047;88;98680;-65
2021/12/05 13:40:22;;;;;;;87.53;40.90;;;;;;;1.03;84.29;99662.67;1587387;89;25735;-63
2021/12/05 13:43:03;;;;;;;80.28;36.80;;;;;;;1.02;84.35;99672.81;1583088;88;28172;-64
2021/12/05 13:45:37;;;;;;;88.20;39.73;;;;;;;1.00;84.23;99673.29;1588654;89;98583;-66
2021/12/05 13:48:08;;;;;;;87.45;38.95;;;;;;;0.96;84.28;99677.31;1587883;88;25801;-65
2021/12/05 13:50:51;;;;;;;82.20;38.50;;;;;;;0.97;84.34;99680.81;1584566;89;99075;-66
2021/12/05 13:53:25;;;;;;;87.88;38.80;;;;;;;0.96;84.29;99683.03;1587805;88;25802;-64
2021/12/05 13:56:02;;;;;;;84.70;39.00;;;;;;;0.95;84.33;99688.77;1567044;89;98811;-64
2021/12/05 13:58:40;;;;;;;94.50;41.08;;;;;;;0.96;84.34;99691.82;1566241;89;26248;-67
2021/12/05 14:01:31;;;;;;;84.47;38.17;;;;;;;0.96;84.34;99691.82;1568422;89;26476;-65
2021/12/05 14:04:19;;;;;;;93.10;40.77;;;;;;;0.94;84.33;99690.11;1567931;90;98325;-65
2021/12/05 14:07:02;;;;;;;87.65;39.40;;;;;;;0.90;84.30;99694.58;1562787;90;25882;-67
2021/12/05 14:09:47;;;;;;;92.42;40.78;;;;;;;0.91;84.41;99697.64;1593136;88;99135;-66
2021/12/05 14:12:29;;;;;;;99.55;44.08;;;;;;;0.93;84.44;99697.16;1594633;88;26413;-65
2021/12/05 14:15:03;;;;;;;96.05;43.68;;;;;;;0.93;84.36;99699.80;1600683;88;99166;-66
2021/12/05 14:17:34;;;;;;;97.62;44.58;;;;;;;0.90;84.30;99709.09;1600585;87;25873;-66
2021/12/05 14:20:08;;;;;;;102.55;46.18;;;;;;;0.90;84.40;99707.77;1599982;88;99067;-65
2021/12/05 14:22:36;;;;;;;94.55;41.90;;;;;;;0.91;84.40;99704.68;1602499;87;27430;-64
2021/12/05 14:25:10;;;;;;;103.12;42.17;;;;;;;0.90;84.39;99712.17;1604679;88;25820;-65
2021/12/05 14:27:41;;;;;;;86.15;38.42;;;;;;;0.89;84.33;99719.22;1600425;87;98849;-65
2021/12/05 14:30:13;;;;;;;100.00;42.05;;;;;;;0.86;84.31;99724.55;1602248;87;25788;-65
2021/12/05 14:32:43;;;;;;;88.82;39.40;;;;;;;0.87;84.40;99734.20;1600547;88;98972;-65
2021/12/05 14:35:14;;;;;;;87.53;41.50;;;;;;;0.82;84.33;99736.51;1606063;87;27403;-64
2021/12/05 14:37:44;;;;;;;99.45;43.00;;;;;;;0.81;84.28;99746.19;1604091;88;98879;-65
2021/12/05 14:40:25;;;;;;;96.10;41.73;;;;;;;0.79;84.33;99749.30;1603395;88;26106;-65
2021/12/05 14:42:51;;;;;;;99.45;42.23;;;;;;;0.81;84.44;99752.78;1607728;87;26192;-63
2021/12/05 14:45:22;;;;;;;94.35;43.98;;;;;;;0.82;84.45;99758.93;1606561;87;98594;-64
2021/12/05 14:47:52;;;;;;;102.38;42.70;;;;;;;0.83;84.46;99763.30;1604971;87;27406;-64
2021/12/05 14:50:30;;;;;;;104.65;45.12;;;;;;;0.81;84.40;99769.06;1608012;88;99018;-66
2021/12/05 14:53:00;;;;;;;95.60;40.48;;;;;;;0.78;84.44;99775.27;1604449;87;25781;-66
2021/12/05 14:55:31;;;;;;;121.22;45.58;;;;;;;0.78;84.41;99781.85;1620122;86;34924;-65
2021/12/05 14:58:02;;;;;;;109.12;47.33;;;;;;;0.77;84.48;99789.34;1618567;86;98669;-66
2021/12/05 15:00:41;;;;;;;113.50;47.65;;;;;;;0.77;84.52;99785.39;1615479;88;27537;-66
2021/12/05 15:03:14;;;;;;;102.55;43.02;;;;;;;0.76;84.50;99782.33;1618775;86;98663;-64
2021/12/05 15:05:45;;;;;;;114.80;46.92;;;;;;;0.76;84.44;99785.41;1621232;88;26308;-64
2021/12/05 15:08:16;;;;;;;114.15;49.27;;;;;;;0.71;84.41;99782.86;1621605;87;99124;-65
2021/12/05 15:10:44;;;;;;;;;;;;;;;0.67;84.45;99789.08;1615750;86;25850;-65
2021/12/05 15:13:12;;;;;;;117.08;47.98;;;;;;;0.68;84.52;99785.55;1618466;87;29660;-65
2021/12/05 15:15:39;;;;;;;117.08;48.95;;;;;;;0.61;84.39;99787.41;1617044;86;98743;-64
2021/12/05 15:18:06;;;;;;;116.37;49.83;;;;;;;0.57;84.42;99781.77;1618822;87;25716;-65
2021/12/05 15:20:35;;;;;;;122.70;53.42;;;;;;;0.54;84.44;99779.63;1602423;88;99099;-65
2021/12/05 15:23:08;;;;;;;118.90;50.00;;;;;;;0.50;84.44;99789.80;1622713;88;25835;-66
2021/12/05 15:25:38;;;;;;;119.00;50.45;;;;;;;0.49;84.50;99786.75;1600610;88;98860;-67
2021/12/05 15:28:06;;;;;;;125.33;51.70;;;;;;;0.48;84.49;99792.92;1623161;88;26417;-66
2021/12/05 15:30:37;;;;;;;117.20;48.08;;;;;;;0.46;84.53;99796.89;1618708;88;25769;-67
2021/12/05 15:33:09;;;;;;;118.37;49.95;;;;;;;0.46;84.58;99799.98;1621313;88;98742;-64
2021/12/05 15:35:36;;;;;;;122.05;49.65;;;;;;;0.45;84.60;99816.25;1618559;86;25931;-66
2021/12/05 15:38:07;;;;;;;115.10;48.45;;;;;;;0.46;84.66;99811.84;1620594;87;98934;-64
2021/12/05 15:40:37;;;;;;;115.22;47.43;;;;;;;0.45;84.57;99812.29;1616927;86;34800;-66
2021/12/05 15:43:07;;;;;;;109.48;45.75;;;;;;;0.41;84.56;99818.50;1615126;87;25792;-66
2021/12/05 15:45:34;;;;;;;124.47;52.20;;;;;;;0.41;84.67;99816.31;1614700;86;99370;-65
2021/12/05 15:48:02;;;;;;;113.83;47.13;;;;;;;0.40;84.68;99813.26;1619357;86;26743;-65
2021/12/05 15:50:32;;;;;;;118.97;48.52;;;;;;;0.37;84.65;99814.62;1619315;86;98922;-67
2021/12/05 15:53:10;;;;;;;117.70;47.53;;;;;;;0.35;84.71;99811.14;1618870;86;26622;-67
2021/12/05 15:55:50;;;;;;;115.97;47.27;;;;;;;0.33;84.71;99812.03;1608230;87;98902;-68
2021/12/05 15:58:24;;;;;;;107.32;45.78;;;;;;;0.30;84.66;99815.16;1604984;87;25805;-67
2021/12/05 16:01:12;;;;;;;104.92;45.03;;;;;;;0.29;84.74;99818.25;1561491;89;26347;-65
2021/12/05 16:03:48;;;;;;;98.55;43.98;;;;;;;0.28;84.80;99824.41;1582697;88;99188;-65
2021/12/05 16:06:17;;;;;;;111.60;46.10;;;;;;;0.27;84.80;99828.38;1571018;91;25494;-65
2021/12/05 16:08:46;;;;;;;105.52;44.05;;;;;;;0.28;84.92;99833.63;1571807;89;98710;-65
2021/12/05 16:11:17;;;;;;;102.72;41.13;;;;;;;0.31;84.90;99830.08;1573205;89;26078;-67
2021/12/05 16:13:47;;;;;;;102.67;43.45;;;;;;;0.27;84.79;99830.58;1571871;89;98971;-65
2021/12/05 16:16:25;;;;;;;105.87;43.60;;;;;;;0.24;84.89;99826.67;1572487;91;55097;-65
2021/12/05 16:18:56;;;;;;;102.25;44.13;;;;;;;0.22;84.85;99836.36;1572439;91;25748;-65
2021/12/05 16:21:31;;;;;;;105.20;43.55;;;;;;;0.19;84.86;99833.77;1571823;89;98847;-65
2021/12/05 16:24:20;;;;;;;101.33;39.98;;;;;;;0.20;84.99;99835.95;1572985;91;25805;-67
2021/12/05 16:26:50;;;;;;;110.55;43.75;;;;;;;0.21;85.01;99833.30;1608468;88;98664;-65
2021/12/05 16:29:21;;;;;;;105.32;41.95;;;;;;;0.23;85.08;99833.28;1605891;87;27420;-65
2021/12/05 16:31:57;;;;;;;104.55;42.05;;;;;;;0.19;85.02;99832.89;1604676;87;98868;-65
2021/12/05 16:34:30;;;;;;;100.12;42.38;;;;;;;0.17;85.02;99838.19;1605449;87;25799;-68
2021/12/05 16:37:08;;;;;;;112.83;45.58;;;;;;;0.17;85.09;99839.51;1601053;87;26085;-69
2021/12/05 16:39:45;;;;;;;102.78;44.73;;;;;;;0.18;85.12;99838.61;1602312;88;98713;-67